createdAt,value
2022-09-14T00:03:53.972Z,1.73
2022-09-14T00:09:00.686Z,1.80
2022-09-14T00:14:06.506Z,1.80
2022-09-14T00:19:17.538Z,2.00
2022-09-14T00:24:21.330Z,2.40
2022-09-14T00:29:26.469Z,2.40
2022-09-14T00:34:30.353Z,2.13
2022-09-14T00:39:33.878Z,2.67
2022-09-14T00:45:02.339Z,2.60
2022-09-14T00:50:07.156Z,2.20
2022-09-14T00:55:13.079Z,2.47
2022-09-14T01:00:21.518Z,2.60
2022-09-14T01:05:36.919Z,2.37
2022-09-14T01:11:01.714Z,2.33
2022-09-14T01:16:14.702Z,2.37
2022-09-14T01:21:24.742Z,2.33
2022-09-14T01:26:55.930Z,3.03
2022-09-14T01:32:05.139Z,3.30
2022-09-14T01:37:14.130Z,2.63
2022-09-14T01:42:19.434Z,3.20
2022-09-14T01:47:29.264Z,2.53
2022-09-14T01:52:38.783Z,2.50
2022-09-14T01:57:46.210Z,2.73
2022-09-14T02:02:55.421Z,3.00
2022-09-14T02:07:59.550Z,1.73
2022-09-14T02:13:03.292Z,1.70
2022-09-14T02:18:08.222Z,1.67
2022-09-14T02:23:11.990Z,1.97
2022-09-14T02:28:16.148Z,1.77
2022-09-14T02:33:28.917Z,1.57
2022-09-14T02:38:41.582Z,1.57
2022-09-14T02:43:52.135Z,2.30
2022-09-14T02:49:03.018Z,1.87
2022-09-14T02:54:12.049Z,2.13
2022-09-14T02:59:15.554Z,1.87
2022-09-14T03:04:20.546Z,2.40
2022-09-14T03:09:24.063Z,2.73
2022-09-14T03:14:27.638Z,2.53
2022-09-14T03:19:32.532Z,3.23
2022-09-14T03:24:36.882Z,2.33
2022-09-14T03:29:40.437Z,2.37
2022-09-14T03:34:45.339Z,1.97
2022-09-14T03:39:48.828Z,2.10
2022-09-14T03:44:52.389Z,2.03
2022-09-14T03:49:57.368Z,2.83
2022-09-14T03:55:01.073Z,2.70
2022-09-14T04:00:06.596Z,2.00
2022-09-14T04:05:19.855Z,2.23
2022-09-14T04:10:25.160Z,2.20
2022-09-14T04:15:28.889Z,1.73
2022-09-14T04:20:33.871Z,2.23
2022-09-14T04:25:37.355Z,1.90
2022-09-14T04:30:40.930Z,1.70
2022-09-14T04:35:45.825Z,1.63
2022-09-14T04:40:49.309Z,2.10
2022-09-14T04:45:53.408Z,1.97
2022-09-14T04:51:02.917Z,2.83
2022-09-14T04:56:08.857Z,2.30
2022-09-14T05:01:16.301Z,2.20
2022-09-14T05:06:23.481Z,2.17
2022-09-14T05:11:28.370Z,2.00
2022-09-14T05:16:33.762Z,2.23
2022-09-14T05:21:39.032Z,2.17
2022-09-14T05:26:43.412Z,1.93
2022-09-14T05:31:47.662Z,1.70
2022-09-14T05:36:52.573Z,1.70
2022-09-14T05:41:56.119Z,1.83
2022-09-14T05:46:59.663Z,1.93
2022-09-14T05:52:05.205Z,1.63
2022-09-14T05:57:08.703Z,1.80
2022-09-14T06:02:15.376Z,1.57
2022-09-14T06:07:22.783Z,1.73
2022-09-14T06:12:27.412Z,1.37
2022-09-14T06:17:31.479Z,1.60
2022-09-14T06:22:36.470Z,1.50
2022-09-14T06:27:40.003Z,1.87
2022-09-14T06:32:43.678Z,1.43
2022-09-14T06:37:48.568Z,1.53
2022-09-14T06:42:52.087Z,1.57
2022-09-14T06:47:55.601Z,1.67
2022-09-14T06:53:01.559Z,1.50
2022-09-14T06:58:05.017Z,1.20
2022-09-14T07:03:08.644Z,0.97
2022-09-14T07:08:13.625Z,1.30
2022-09-14T07:13:17.133Z,1.30
2022-09-14T07:18:21.394Z,1.30
2022-09-14T07:23:26.332Z,1.30
2022-09-14T07:28:32.840Z,1.13
2022-09-14T07:33:36.550Z,1.20
2022-09-14T07:39:01.070Z,1.23
2022-09-14T07:44:07.305Z,1.00
2022-09-14T07:49:11.943Z,0.90
2022-09-14T07:54:18.639Z,0.90
2022-09-14T07:59:35.718Z,0.90
2022-09-14T08:04:40.331Z,0.53
2022-09-14T08:09:45.793Z,0.60
2022-09-14T08:14:50.926Z,0.83
2022-09-14T08:19:55.642Z,0.50
2022-09-14T08:25:00.543Z,0.57
2022-09-14T08:30:04.345Z,0.63
2022-09-14T08:35:08.770Z,0.30
2022-09-14T08:40:15.405Z,0.40
2022-09-14T08:45:19.312Z,0.40
2022-09-14T08:50:23.670Z,0.43
2022-09-14T08:55:36.386Z,0.40
2022-09-14T09:00:45.648Z,0.27
2022-09-14T09:05:54.250Z,0.30
2022-09-14T09:11:01.990Z,0.40
2022-09-14T09:16:09.946Z,0.40
2022-09-14T09:21:17.012Z,0.30
2022-09-14T09:26:28.830Z,0.40
2022-09-14T09:31:36.209Z,0.40
2022-09-14T09:37:15.556Z,0.30
2022-09-14T09:42:24.920Z,0.43
2022-09-14T09:47:32.089Z,0.50
2022-09-14T09:52:36.192Z,1.50
2022-09-14T09:57:41.107Z,0.40
2022-09-14T10:02:45.093Z,0.37
2022-09-14T10:07:55.106Z,0.50
2022-09-14T10:13:00.263Z,0.50
2022-09-14T10:18:09.954Z,0.50
2022-09-14T10:23:26.088Z,0.43
2022-09-14T10:28:32.954Z,0.40
2022-09-14T10:33:36.960Z,0.30
2022-09-14T10:38:45.875Z,0.27
2022-09-14T10:44:25.763Z,0.30
2022-09-14T10:49:40.932Z,0.30
2022-09-14T10:55:00.264Z,0.30
2022-09-14T11:00:09.554Z,1.30
2022-09-14T11:05:19.877Z,0.30
2022-09-14T11:10:29.717Z,0.30
2022-09-14T11:15:42.133Z,0.40
2022-09-14T11:20:54.694Z,0.40
2022-09-14T11:26:01.172Z,0.30
2022-09-14T11:31:12.301Z,0.37
2022-09-14T11:36:20.571Z,0.33
2022-09-14T11:41:29.281Z,0.30
2022-09-14T11:46:37.451Z,0.77
2022-09-14T11:51:47.353Z,0.33
2022-09-14T11:56:53.678Z,0.40
2022-09-14T12:02:18.679Z,0.53
2022-09-14T12:07:53.657Z,0.37
2022-09-14T12:12:59.009Z,0.40
2022-09-14T12:18:24.495Z,0.70
2022-09-14T12:23:33.792Z,0.30
2022-09-14T12:28:47.980Z,0.40
2022-09-14T12:34:23.589Z,0.30
2022-09-14T12:39:28.536Z,0.40
2022-09-14T12:44:37.940Z,0.40
2022-09-14T12:49:42.933Z,0.33
2022-09-14T12:55:08.192Z,0.30
2022-09-14T13:00:15.748Z,0.30
2022-09-14T13:05:23.781Z,0.40
2022-09-14T13:10:31.440Z,0.30
2022-09-14T13:15:37.989Z,0.30
2022-09-14T13:20:51.427Z,0.30
2022-09-14T13:25:55.289Z,0.30
2022-09-14T13:31:01.281Z,0.20
2022-09-14T13:36:06.748Z,0.20
2022-09-14T13:41:13.070Z,0.37
2022-09-14T13:46:20.248Z,0.30
2022-09-14T13:51:27.788Z,0.60
2022-09-14T13:56:33.833Z,0.30
2022-09-14T14:01:40.371Z,0.30
2022-09-14T14:06:46.064Z,0.40
2022-09-14T14:11:55.144Z,0.40
2022-09-14T14:17:24.767Z,0.30
2022-09-14T14:22:33.220Z,0.50
2022-09-14T14:27:41.689Z,0.30
2022-09-14T14:32:50.071Z,0.40
2022-09-14T14:37:55.611Z,0.30
2022-09-14T14:43:02.708Z,0.30
2022-09-14T14:48:06.720Z,0.30
2022-09-14T14:53:11.670Z,0.30
2022-09-14T14:58:17.704Z,0.30
2022-09-14T15:03:21.773Z,0.37
2022-09-14T15:08:26.748Z,0.33
2022-09-14T15:13:30.238Z,0.27
2022-09-14T15:18:33.812Z,0.20
2022-09-14T15:23:39.049Z,0.20
2022-09-14T15:28:42.638Z,0.30
2022-09-14T15:33:46.245Z,0.20
2022-09-14T15:38:51.210Z,0.20
2022-09-14T15:43:54.734Z,0.30
2022-09-14T15:48:58.916Z,0.20
2022-09-14T15:54:04.412Z,0.30
2022-09-14T15:59:08.625Z,0.30
2022-09-14T16:04:12.439Z,0.37
2022-09-14T16:09:18.623Z,0.20
2022-09-14T16:14:22.330Z,0.30
2022-09-14T16:19:26.168Z,0.20
2022-09-14T16:24:32.153Z,0.40
2022-09-14T16:29:35.761Z,0.30
2022-09-14T16:34:39.334Z,0.30
2022-09-14T16:39:44.403Z,0.30
2022-09-14T16:44:49.205Z,0.30
2022-09-14T16:49:53.287Z,0.30
2022-09-14T16:54:58.260Z,0.30
2022-09-14T17:00:02.106Z,0.30
2022-09-14T17:05:06.172Z,0.30
2022-09-14T17:10:11.565Z,1.37
2022-09-14T17:15:15.239Z,0.40
2022-09-14T17:20:18.801Z,0.40
2022-09-14T17:25:26.295Z,0.40
2022-09-14T17:30:29.941Z,0.43
2022-09-14T17:35:33.404Z,0.30
2022-09-14T17:40:38.288Z,0.50
2022-09-14T17:45:53.032Z,0.50
2022-09-14T17:50:56.834Z,0.50
2022-09-14T17:56:05.183Z,0.50
2022-09-14T18:01:10.420Z,0.50
2022-09-14T18:06:14.148Z,0.60
2022-09-14T18:11:19.121Z,0.40
2022-09-14T18:16:27.178Z,0.90
2022-09-14T18:21:30.882Z,0.50
2022-09-14T18:26:35.766Z,0.73
2022-09-14T18:31:39.385Z,0.40
2022-09-14T18:36:43.059Z,0.60
2022-09-14T18:41:53.616Z,0.57
2022-09-14T18:46:59.153Z,0.70
2022-09-14T18:52:03.183Z,0.70
2022-09-14T18:57:08.123Z,0.63
2022-09-14T19:02:11.803Z,0.60
2022-09-14T19:07:15.448Z,0.80
2022-09-14T19:12:20.524Z,1.03
2022-09-14T19:17:24.401Z,0.80
2022-09-14T19:22:31.128Z,0.90
2022-09-14T19:27:37.913Z,1.00
2022-09-14T19:32:41.485Z,0.90
2022-09-14T19:37:45.016Z,1.10
2022-09-14T19:42:50.011Z,0.90
2022-09-14T19:47:53.557Z,1.30
2022-09-14T19:53:00.203Z,1.10
2022-09-14T19:58:07.633Z,1.27
2022-09-14T20:03:11.385Z,1.17
2022-09-14T20:08:15.060Z,1.10
2022-09-14T20:13:19.968Z,1.27
2022-09-14T20:18:23.527Z,1.23
2022-09-14T20:23:27.058Z,1.40
2022-09-14T20:28:33.774Z,1.30
2022-09-14T20:33:37.861Z,1.47
2022-09-14T20:38:46.573Z,1.07
2022-09-14T20:43:55.025Z,1.17
2022-09-14T20:48:59.226Z,2.27
2022-09-14T20:54:03.014Z,1.50
2022-09-14T20:59:10.587Z,1.60
2022-09-14T21:04:16.481Z,1.70
2022-09-14T21:09:21.501Z,1.67
2022-09-14T21:14:28.470Z,1.67
2022-09-14T21:19:32.096Z,1.20
2022-09-14T21:24:36.182Z,1.70
2022-09-14T21:29:41.110Z,1.47
2022-09-14T21:34:44.793Z,1.40
2022-09-14T21:39:48.352Z,2.00
2022-09-14T21:44:53.231Z,1.80
2022-09-14T21:49:56.762Z,1.60
2022-09-14T21:55:00.236Z,1.53
2022-09-14T22:00:07.734Z,1.70
2022-09-14T22:05:12.023Z,1.60
2022-09-14T22:10:15.688Z,1.70
2022-09-14T22:15:20.582Z,1.80
2022-09-14T22:20:24.313Z,2.17
2022-09-14T22:25:29.098Z,2.10
2022-09-14T22:30:35.182Z,2.03
2022-09-14T22:35:38.758Z,2.53
2022-09-14T22:40:42.249Z,2.23
2022-09-14T22:45:47.621Z,2.00
2022-09-14T22:50:53.255Z,2.30
2022-09-14T22:55:56.843Z,2.03
2022-09-14T23:01:06.924Z,2.17
2022-09-14T23:06:11.510Z,2.73
2022-09-14T23:11:15.044Z,2.53
2022-09-14T23:16:21.690Z,2.27
2022-09-14T23:21:25.895Z,2.67
2022-09-14T23:26:30.154Z,2.47
2022-09-14T23:31:35.224Z,2.30
2022-09-14T23:36:38.724Z,2.40
2022-09-14T23:41:42.273Z,3.37
2022-09-14T23:46:47.190Z,4.03
2022-09-14T23:51:50.848Z,2.70
2022-09-14T23:56:54.388Z,2.93
